sensor_id;sensor_type;location;lat;lon;timestamp;temperature;humidity
36654;DHT22;22650;49.350;20.898;2023-07-30T00:01:42;18.10;99.90
36654;DHT22;22650;49.350;20.898;2023-07-30T00:04:16;18.10;99.90
36654;DHT22;22650;49.350;20.898;2023-07-30T00:06:51;18.10;99.90
36654;DHT22;22650;49.350;20.898;2023-07-30T00:09:25;18.10;99.90
36654;DHT22;22650;49.350;20.898;2023-07-30T00:11:59;18.00;99.90
36654;DHT22;22650;49.350;20.898;2023-07-30T00:14:34;18.00;99.90
36654;DHT22;22650;49.350;20.898;2023-07-30T00:17:07;18.00;99.90
36654;DHT22;22650;49.350;20.898;2023-07-30T00:19:41;18.00;99.90
36654;DHT22;22650;49.350;20.898;2023-07-30T00:22:16;17.90;99.90
36654;DHT22;22650;49.350;20.898;2023-07-30T00:24:54;18.00;99.90
36654;DHT22;22650;49.350;20.898;2023-07-30T00:27:27;18.00;99.90
36654;DHT22;22650;49.350;20.898;2023-07-30T00:30:01;17.90;99.90
36654;DHT22;22650;49.350;20.898;2023-07-30T00:32:35;18.00;99.90
36654;DHT22;22650;49.350;20.898;2023-07-30T00:35:16;17.90;99.90
36654;DHT22;22650;49.350;20.898;2023-07-30T00:37:51;17.90;99.90
36654;DHT22;22650;49.350;20.898;2023-07-30T00:40:24;17.90;99.90
36654;DHT22;22650;49.350;20.898;2023-07-30T00:42:58;17.90;99.90
36654;DHT22;22650;49.350;20.898;2023-07-30T00:45:32;17.80;99.90
36654;DHT22;22650;49.350;20.898;2023-07-30T00:48:05;17.80;99.90
36654;DHT22;22650;49.350;20.898;2023-07-30T00:50:40;17.90;99.90
36654;DHT22;22650;49.350;20.898;2023-07-30T00:53:16;17.80;99.90
36654;DHT22;22650;49.350;20.898;2023-07-30T00:55:51;17.80;99.90
36654;DHT22;22650;49.350;20.898;2023-07-30T00:58:25;17.80;99.90
36654;DHT22;22650;49.350;20.898;2023-07-30T01:00:59;17.80;99.90
36654;DHT22;22650;49.350;20.898;2023-07-30T01:03:35;17.80;99.90
36654;DHT22;22650;49.350;20.898;2023-07-30T01:06:08;17.80;99.90
36654;DHT22;22650;49.350;20.898;2023-07-30T01:08:44;17.80;99.90
36654;DHT22;22650;49.350;20.898;2023-07-30T01:11:18;17.80;99.90
36654;DHT22;22650;49.350;20.898;2023-07-30T01:13:52;17.80;99.90
36654;DHT22;22650;49.350;20.898;2023-07-30T01:16:26;17.80;99.90
36654;DHT22;22650;49.350;20.898;2023-07-30T01:19:00;17.80;99.90
36654;DHT22;22650;49.350;20.898;2023-07-30T01:21:38;17.80;99.90
36654;DHT22;22650;49.350;20.898;2023-07-30T01:24:12;17.80;99.90
36654;DHT22;22650;49.350;20.898;2023-07-30T01:26:49;17.80;99.90
36654;DHT22;22650;49.350;20.898;2023-07-30T01:29:28;17.80;99.90
36654;DHT22;22650;49.350;20.898;2023-07-30T01:32:09;17.80;99.90
36654;DHT22;22650;49.350;20.898;2023-07-30T01:34:44;17.80;99.90
36654;DHT22;22650;49.350;20.898;2023-07-30T01:37:21;17.70;99.90
36654;DHT22;22650;49.350;20.898;2023-07-30T01:39:56;17.70;99.90
36654;DHT22;22650;49.350;20.898;2023-07-30T01:42:30;17.70;99.90
36654;DHT22;22650;49.350;20.898;2023-07-30T01:45:05;17.70;99.90
36654;DHT22;22650;49.350;20.898;2023-07-30T01:47:39;17.70;99.90
36654;DHT22;22650;49.350;20.898;2023-07-30T01:50:13;17.70;99.90
36654;DHT22;22650;49.350;20.898;2023-07-30T01:52:48;17.70;99.90
36654;DHT22;22650;49.350;20.898;2023-07-30T01:55:22;17.70;99.90
36654;DHT22;22650;49.350;20.898;2023-07-30T01:57:55;17.70;99.90
36654;DHT22;22650;49.350;20.898;2023-07-30T02:00:29;17.70;99.90
36654;DHT22;22650;49.350;20.898;2023-07-30T02:03:08;17.70;99.90
36654;DHT22;22650;49.350;20.898;2023-07-30T02:05:42;17.60;99.90
36654;DHT22;22650;49.350;20.898;2023-07-30T02:08:17;17.60;99.90
36654;DHT22;22650;49.350;20.898;2023-07-30T02:10:57;17.60;99.90
36654;DHT22;22650;49.350;20.898;2023-07-30T02:13:30;17.60;99.90
36654;DHT22;22650;49.350;20.898;2023-07-30T02:16:04;17.60;99.90
36654;DHT22;22650;49.350;20.898;2023-07-30T02:18:38;17.60;99.90
36654;DHT22;22650;49.350;20.898;2023-07-30T02:21:12;17.50;99.90
36654;DHT22;22650;49.350;20.898;2023-07-30T02:23:47;17.50;99.90
36654;DHT22;22650;49.350;20.898;2023-07-30T02:26:20;17.40;99.90
36654;DHT22;22650;49.350;20.898;2023-07-30T02:28:54;17.40;99.90
36654;DHT22;22650;49.350;20.898;2023-07-30T02:31:28;17.40;99.90
36654;DHT22;22650;49.350;20.898;2023-07-30T02:34:02;17.40;99.90
36654;DHT22;22650;49.350;20.898;2023-07-30T02:36:35;17.40;99.90
36654;DHT22;22650;49.350;20.898;2023-07-30T02:39:11;17.30;99.90
36654;DHT22;22650;49.350;20.898;2023-07-30T02:41:45;17.30;99.90
36654;DHT22;22650;49.350;20.898;2023-07-30T02:44:18;17.30;99.90
36654;DHT22;22650;49.350;20.898;2023-07-30T02:46:52;17.30;99.90
36654;DHT22;22650;49.350;20.898;2023-07-30T02:49:25;17.30;99.90
36654;DHT22;22650;49.350;20.898;2023-07-30T02:51:59;17.20;99.90
36654;DHT22;22650;49.350;20.898;2023-07-30T02:54:34;17.20;99.90
36654;DHT22;22650;49.350;20.898;2023-07-30T02:57:08;17.20;99.90
36654;DHT22;22650;49.350;20.898;2023-07-30T02:59:42;17.20;99.90
36654;DHT22;22650;49.350;20.898;2023-07-30T03:02:16;17.20;99.90
36654;DHT22;22650;49.350;20.898;2023-07-30T03:04:50;17.20;99.90
36654;DHT22;22650;49.350;20.898;2023-07-30T03:07:26;17.20;99.90
36654;DHT22;22650;49.350;20.898;2023-07-30T03:10:02;17.20;99.90
36654;DHT22;22650;49.350;20.898;2023-07-30T03:12:36;17.20;99.90
36654;DHT22;22650;49.350;20.898;2023-07-30T03:15:09;17.10;99.90
36654;DHT22;22650;49.350;20.898;2023-07-30T03:17:43;17.10;99.90
36654;DHT22;22650;49.350;20.898;2023-07-30T03:20:17;17.20;99.90
36654;DHT22;22650;49.350;20.898;2023-07-30T03:22:51;17.10;99.90
36654;DHT22;22650;49.350;20.898;2023-07-30T03:25:26;17.20;99.90
36654;DHT22;22650;49.350;20.898;2023-07-30T03:28:00;17.20;99.90
36654;DHT22;22650;49.350;20.898;2023-07-30T03:30:33;17.10;99.90
36654;DHT22;22650;49.350;20.898;2023-07-30T03:33:07;17.10;99.90
36654;DHT22;22650;49.350;20.898;2023-07-30T03:35:41;17.10;99.90
36654;DHT22;22650;49.350;20.898;2023-07-30T03:38:14;17.10;99.90
36654;DHT22;22650;49.350;20.898;2023-07-30T03:40:50;17.10;99.90
36654;DHT22;22650;49.350;20.898;2023-07-30T03:43:23;17.20;99.90
36654;DHT22;22650;49.350;20.898;2023-07-30T03:45:57;17.20;99.90
36654;DHT22;22650;49.350;20.898;2023-07-30T03:48:31;17.20;99.90
36654;DHT22;22650;49.350;20.898;2023-07-30T03:51:05;17.20;99.90
36654;DHT22;22650;49.350;20.898;2023-07-30T03:53:39;17.20;99.90
36654;DHT22;22650;49.350;20.898;2023-07-30T03:56:16;17.20;99.90
36654;DHT22;22650;49.350;20.898;2023-07-30T03:58:50;17.20;99.90
36654;DHT22;22650;49.350;20.898;2023-07-30T04:01:24;17.20;99.90
36654;DHT22;22650;49.350;20.898;2023-07-30T04:03:57;17.30;99.90
36654;DHT22;22650;49.350;20.898;2023-07-30T04:06:31;17.30;99.90
36654;DHT22;22650;49.350;20.898;2023-07-30T04:09:05;17.30;99.90
36654;DHT22;22650;49.350;20.898;2023-07-30T04:11:40;17.30;99.90
36654;DHT22;22650;49.350;20.898;2023-07-30T04:14:14;17.30;99.90
36654;DHT22;22650;49.350;20.898;2023-07-30T04:16:48;17.40;99.90
36654;DHT22;22650;49.350;20.898;2023-07-30T04:19:22;17.40;99.90
36654;DHT22;22650;49.350;20.898;2023-07-30T04:21:56;17.40;99.90
36654;DHT22;22650;49.350;20.898;2023-07-30T04:24:29;17.40;99.90
36654;DHT22;22650;49.350;20.898;2023-07-30T04:27:05;17.40;99.90
36654;DHT22;22650;49.350;20.898;2023-07-30T04:29:39;17.30;99.90
36654;DHT22;22650;49.350;20.898;2023-07-30T04:32:13;17.30;99.90
36654;DHT22;22650;49.350;20.898;2023-07-30T04:34:47;17.30;99.90
36654;DHT22;22650;49.350;20.898;2023-07-30T04:37:22;17.30;99.90
36654;DHT22;22650;49.350;20.898;2023-07-30T04:39:57;17.30;99.90
36654;DHT22;22650;49.350;20.898;2023-07-30T04:42:35;17.30;99.90
36654;DHT22;22650;49.350;20.898;2023-07-30T04:45:09;17.30;99.90
36654;DHT22;22650;49.350;20.898;2023-07-30T04:47:47;17.30;99.90
36654;DHT22;22650;49.350;20.898;2023-07-30T04:50:21;17.40;99.90
36654;DHT22;22650;49.350;20.898;2023-07-30T04:52:55;17.40;99.90
36654;DHT22;22650;49.350;20.898;2023-07-30T04:55:29;17.40;99.90
36654;DHT22;22650;49.350;20.898;2023-07-30T04:58:04;17.50;99.90
36654;DHT22;22650;49.350;20.898;2023-07-30T05:00:38;17.50;99.90
36654;DHT22;22650;49.350;20.898;2023-07-30T05:03:11;17.60;99.90
36654;DHT22;22650;49.350;20.898;2023-07-30T05:05:45;17.60;99.90
36654;DHT22;22650;49.350;20.898;2023-07-30T05:08:19;17.70;99.90
36654;DHT22;22650;49.350;20.898;2023-07-30T05:10:53;17.70;99.90
36654;DHT22;22650;49.350;20.898;2023-07-30T05:13:28;17.70;99.90
36654;DHT22;22650;49.350;20.898;2023-07-30T05:16:02;17.80;99.90
36654;DHT22;22650;49.350;20.898;2023-07-30T05:18:36;17.70;99.90
36654;DHT22;22650;49.350;20.898;2023-07-30T05:21:10;17.80;99.90
36654;DHT22;22650;49.350;20.898;2023-07-30T05:23:43;17.80;99.90
36654;DHT22;22650;49.350;20.898;2023-07-30T05:26:17;17.80;99.90
36654;DHT22;22650;49.350;20.898;2023-07-30T05:28:52;17.80;99.90
36654;DHT22;22650;49.350;20.898;2023-07-30T05:31:26;17.80;99.90
36654;DHT22;22650;49.350;20.898;2023-07-30T05:34:00;17.80;99.90
36654;DHT22;22650;49.350;20.898;2023-07-30T05:36:33;17.80;99.90
36654;DHT22;22650;49.350;20.898;2023-07-30T05:39:07;17.90;99.90
36654;DHT22;22650;49.350;20.898;2023-07-30T05:41:41;18.00;99.90
36654;DHT22;22650;49.350;20.898;2023-07-30T05:44:16;18.00;99.90
36654;DHT22;22650;49.350;20.898;2023-07-30T05:46:50;18.00;99.90
36654;DHT22;22650;49.350;20.898;2023-07-30T05:49:24;18.10;99.90
36654;DHT22;22650;49.350;20.898;2023-07-30T05:51:58;18.20;99.90
36654;DHT22;22650;49.350;20.898;2023-07-30T05:54:34;18.30;99.90
36654;DHT22;22650;49.350;20.898;2023-07-30T05:57:08;18.30;99.90
36654;DHT22;22650;49.350;20.898;2023-07-30T05:59:43;18.40;99.90
36654;DHT22;22650;49.350;20.898;2023-07-30T06:02:17;18.50;99.90
36654;DHT22;22650;49.350;20.898;2023-07-30T06:04:51;18.60;99.90
36654;DHT22;22650;49.350;20.898;2023-07-30T06:07:24;18.60;99.90
36654;DHT22;22650;49.350;20.898;2023-07-30T06:09:59;18.70;99.90
36654;DHT22;22650;49.350;20.898;2023-07-30T06:12:33;18.70;99.90
36654;DHT22;22650;49.350;20.898;2023-07-30T06:15:10;18.80;99.90
36654;DHT22;22650;49.350;20.898;2023-07-30T06:17:44;18.90;99.90
36654;DHT22;22650;49.350;20.898;2023-07-30T06:20:18;19.00;99.90
36654;DHT22;22650;49.350;20.898;2023-07-30T06:22:51;19.10;99.90
36654;DHT22;22650;49.350;20.898;2023-07-30T06:25:25;19.10;99.90
36654;DHT22;22650;49.350;20.898;2023-07-30T06:28:17;19.10;99.90
36654;DHT22;22650;49.350;20.898;2023-07-30T06:30:52;19.20;99.90
36654;DHT22;22650;49.350;20.898;2023-07-30T06:33:26;19.20;99.90
36654;DHT22;22650;49.350;20.898;2023-07-30T06:36:03;19.30;99.90
36654;DHT22;22650;49.350;20.898;2023-07-30T06:38:37;19.40;99.90
36654;DHT22;22650;49.350;20.898;2023-07-30T06:41:11;19.50;99.90
36654;DHT22;22650;49.350;20.898;2023-07-30T06:43:44;19.60;99.90
36654;DHT22;22650;49.350;20.898;2023-07-30T06:46:19;19.80;99.90
36654;DHT22;22650;49.350;20.898;2023-07-30T06:48:53;19.90;99.90
36654;DHT22;22650;49.350;20.898;2023-07-30T06:51:27;20.00;99.90
36654;DHT22;22650;49.350;20.898;2023-07-30T06:54:01;20.20;99.90
36654;DHT22;22650;49.350;20.898;2023-07-30T06:56:35;20.20;99.90
36654;DHT22;22650;49.350;20.898;2023-07-30T06:59:09;20.30;99.90
36654;DHT22;22650;49.350;20.898;2023-07-30T07:01:44;20.40;99.90
36654;DHT22;22650;49.350;20.898;2023-07-30T07:04:19;20.60;99.90
36654;DHT22;22650;49.350;20.898;2023-07-30T07:06:52;20.70;99.90
36654;DHT22;22650;49.350;20.898;2023-07-30T07:09:26;20.90;99.90
36654;DHT22;22650;49.350;20.898;2023-07-30T07:11:59;21.00;99.90
36654;DHT22;22650;49.350;20.898;2023-07-30T07:14:33;21.20;99.90
36654;DHT22;22650;49.350;20.898;2023-07-30T07:17:09;21.40;99.90
36654;DHT22;22650;49.350;20.898;2023-07-30T07:19:42;21.50;99.90
36654;DHT22;22650;49.350;20.898;2023-07-30T07:22:16;21.70;99.90
36654;DHT22;22650;49.350;20.898;2023-07-30T07:24:51;21.80;99.90
36654;DHT22;22650;49.350;20.898;2023-07-30T07:27:25;22.00;99.90
36654;DHT22;22650;49.350;20.898;2023-07-30T07:29:59;22.10;99.90
36654;DHT22;22650;49.350;20.898;2023-07-30T07:32:35;22.30;99.90
36654;DHT22;22650;49.350;20.898;2023-07-30T07:35:11;22.50;99.90
36654;DHT22;22650;49.350;20.898;2023-07-30T07:37:44;22.60;99.90
36654;DHT22;22650;49.350;20.898;2023-07-30T07:40:18;22.70;99.90
36654;DHT22;22650;49.350;20.898;2023-07-30T07:42:52;22.80;99.90
36654;DHT22;22650;49.350;20.898;2023-07-30T07:45:26;22.80;99.90
36654;DHT22;22650;49.350;20.898;2023-07-30T07:48:01;22.90;99.90
36654;DHT22;22650;49.350;20.898;2023-07-30T07:50:35;23.00;99.90
36654;DHT22;22650;49.350;20.898;2023-07-30T07:53:08;23.10;99.90
36654;DHT22;22650;49.350;20.898;2023-07-30T07:55:42;23.20;99.90
36654;DHT22;22650;49.350;20.898;2023-07-30T07:58:16;23.40;99.90
36654;DHT22;22650;49.350;20.898;2023-07-30T08:00:50;23.50;99.90
36654;DHT22;22650;49.350;20.898;2023-07-30T08:03:25;23.70;99.90
36654;DHT22;22650;49.350;20.898;2023-07-30T08:05:59;23.90;99.90
36654;DHT22;22650;49.350;20.898;2023-07-30T08:08:33;24.10;99.90
36654;DHT22;22650;49.350;20.898;2023-07-30T08:11:07;24.20;99.90
36654;DHT22;22650;49.350;20.898;2023-07-30T08:13:41;24.40;99.90
36654;DHT22;22650;49.350;20.898;2023-07-30T08:16:15;24.60;99.90
36654;DHT22;22650;49.350;20.898;2023-07-30T08:18:51;24.80;99.90
36654;DHT22;22650;49.350;20.898;2023-07-30T08:21:25;24.90;99.90
36654;DHT22;22650;49.350;20.898;2023-07-30T08:23:59;25.10;99.90
36654;DHT22;22650;49.350;20.898;2023-07-30T08:26:34;25.20;99.90
36654;DHT22;22650;49.350;20.898;2023-07-30T08:29:08;25.30;99.90
36654;DHT22;22650;49.350;20.898;2023-07-30T08:31:46;25.50;99.90
36654;DHT22;22650;49.350;20.898;2023-07-30T08:34:27;25.60;99.90
36654;DHT22;22650;49.350;20.898;2023-07-30T08:37:06;25.70;99.90
36654;DHT22;22650;49.350;20.898;2023-07-30T08:39:41;25.80;99.90
36654;DHT22;22650;49.350;20.898;2023-07-30T08:42:15;25.80;99.90
36654;DHT22;22650;49.350;20.898;2023-07-30T08:44:49;25.90;99.90
36654;DHT22;22650;49.350;20.898;2023-07-30T08:47:24;26.00;99.90
36654;DHT22;22650;49.350;20.898;2023-07-30T08:49:59;26.10;99.90
36654;DHT22;22650;49.350;20.898;2023-07-30T08:52:35;26.20;99.90
36654;DHT22;22650;49.350;20.898;2023-07-30T08:55:10;26.30;99.90
36654;DHT22;22650;49.350;20.898;2023-07-30T08:57:45;26.40;99.90
36654;DHT22;22650;49.350;20.898;2023-07-30T09:00:19;26.60;99.90
36654;DHT22;22650;49.350;20.898;2023-07-30T09:02:58;26.60;99.90
36654;DHT22;22650;49.350;20.898;2023-07-30T09:05:34;26.70;99.90
36654;DHT22;22650;49.350;20.898;2023-07-30T09:08:09;26.80;99.90
36654;DHT22;22650;49.350;20.898;2023-07-30T09:10:43;26.90;99.90
36654;DHT22;22650;49.350;20.898;2023-07-30T09:13:21;26.90;99.90
36654;DHT22;22650;49.350;20.898;2023-07-30T09:15:55;27.10;99.90
36654;DHT22;22650;49.350;20.898;2023-07-30T09:18:38;27.20;99.90
36654;DHT22;22650;49.350;20.898;2023-07-30T09:21:14;27.30;99.90
36654;DHT22;22650;49.350;20.898;2023-07-30T09:23:48;27.50;99.90
36654;DHT22;22650;49.350;20.898;2023-07-30T09:26:22;27.70;99.90
36654;DHT22;22650;49.350;20.898;2023-07-30T09:28:55;27.70;99.90
36654;DHT22;22650;49.350;20.898;2023-07-30T09:31:29;27.90;99.90
36654;DHT22;22650;49.350;20.898;2023-07-30T09:34:03;28.10;99.90
36654;DHT22;22650;49.350;20.898;2023-07-30T09:36:39;28.20;99.20
36654;DHT22;22650;49.350;20.898;2023-07-30T09:39:15;28.40;99.20
36654;DHT22;22650;49.350;20.898;2023-07-30T09:41:51;28.40;97.00
36654;DHT22;22650;49.350;20.898;2023-07-30T09:44:25;28.40;94.40
36654;DHT22;22650;49.350;20.898;2023-07-30T09:47:00;28.50;96.30
36654;DHT22;22650;49.350;20.898;2023-07-30T09:49:38;28.70;95.20
36654;DHT22;22650;49.350;20.898;2023-07-30T09:52:14;28.70;95.70
36654;DHT22;22650;49.350;20.898;2023-07-30T09:54:49;28.90;93.60
36654;DHT22;22650;49.350;20.898;2023-07-30T09:57:23;29.00;92.10
36654;DHT22;22650;49.350;20.898;2023-07-30T09:59:57;29.10;92.00
36654;DHT22;22650;49.350;20.898;2023-07-30T10:02:39;29.10;91.90
36654;DHT22;22650;49.350;20.898;2023-07-30T10:05:15;29.20;90.50
36654;DHT22;22650;49.350;20.898;2023-07-30T10:07:53;29.20;89.40
36654;DHT22;22650;49.350;20.898;2023-07-30T10:10:29;29.30;89.60
36654;DHT22;22650;49.350;20.898;2023-07-30T10:13:05;29.30;90.40
36654;DHT22;22650;49.350;20.898;2023-07-30T10:15:39;29.30;90.10
36654;DHT22;22650;49.350;20.898;2023-07-30T10:18:13;29.40;88.50
36654;DHT22;22650;49.350;20.898;2023-07-30T10:20:53;29.40;88.90
36654;DHT22;22650;49.350;20.898;2023-07-30T10:23:29;29.30;80.10
36654;DHT22;22650;49.350;20.898;2023-07-30T10:26:09;29.30;84.70
36654;DHT22;22650;49.350;20.898;2023-07-30T10:28:43;29.30;83.30
36654;DHT22;22650;49.350;20.898;2023-07-30T10:31:17;29.40;84.40
36654;DHT22;22650;49.350;20.898;2023-07-30T10:33:52;29.50;84.50
36654;DHT22;22650;49.350;20.898;2023-07-30T10:36:31;29.50;82.80
36654;DHT22;22650;49.350;20.898;2023-07-30T10:39:13;29.60;84.30
36654;DHT22;22650;49.350;20.898;2023-07-30T10:41:50;29.70;82.40
36654;DHT22;22650;49.350;20.898;2023-07-30T10:44:25;29.80;86.00
36654;DHT22;22650;49.350;20.898;2023-07-30T10:47:00;29.90;86.10
36654;DHT22;22650;49.350;20.898;2023-07-30T10:49:36;29.90;80.30
36654;DHT22;22650;49.350;20.898;2023-07-30T10:52:10;29.90;80.70
36654;DHT22;22650;49.350;20.898;2023-07-30T10:54:45;29.80;80.80
36654;DHT22;22650;49.350;20.898;2023-07-30T10:57:19;29.80;80.50
36654;DHT22;22650;49.350;20.898;2023-07-30T10:59:53;29.70;85.30
36654;DHT22;22650;49.350;20.898;2023-07-30T11:02:29;29.60;81.00
36654;DHT22;22650;49.350;20.898;2023-07-30T11:05:13;29.60;81.10
36654;DHT22;22650;49.350;20.898;2023-07-30T11:07:49;29.60;77.90
36654;DHT22;22650;49.350;20.898;2023-07-30T11:10:26;29.70;83.60
36654;DHT22;22650;49.350;20.898;2023-07-30T11:12:59;29.60;81.00
36654;DHT22;22650;49.350;20.898;2023-07-30T11:15:33;29.60;81.00
36654;DHT22;22650;49.350;20.898;2023-07-30T11:18:07;29.50;80.80
36654;DHT22;22650;49.350;20.898;2023-07-30T11:20:41;29.40;82.80
36654;DHT22;22650;49.350;20.898;2023-07-30T11:23:18;29.10;84.30
36654;DHT22;22650;49.350;20.898;2023-07-30T11:25:53;28.90;85.80
36654;DHT22;22650;49.350;20.898;2023-07-30T11:28:28;28.50;87.00
36654;DHT22;22650;49.350;20.898;2023-07-30T11:31:05;28.20;90.10
36654;DHT22;22650;49.350;20.898;2023-07-30T11:33:41;27.90;91.10
36654;DHT22;22650;49.350;20.898;2023-07-30T11:36:16;27.60;91.20
36654;DHT22;22650;49.350;20.898;2023-07-30T11:38:51;27.30;92.50
36654;DHT22;22650;49.350;20.898;2023-07-30T11:41:33;27.10;94.50
36654;DHT22;22650;49.350;20.898;2023-07-30T11:44:08;26.90;94.20
36654;DHT22;22650;49.350;20.898;2023-07-30T11:46:53;26.60;95.80
36654;DHT22;22650;49.350;20.898;2023-07-30T11:49:27;26.40;95.60
36654;DHT22;22650;49.350;20.898;2023-07-30T11:52:05;26.10;96.80
36654;DHT22;22650;49.350;20.898;2023-07-30T11:54:38;25.90;97.30
36654;DHT22;22650;49.350;20.898;2023-07-30T11:57:14;25.60;98.20
36654;DHT22;22650;49.350;20.898;2023-07-30T11:59:47;25.20;98.80
36654;DHT22;22650;49.350;20.898;2023-07-30T12:02:21;25.00;99.90
36654;DHT22;22650;49.350;20.898;2023-07-30T12:04:55;24.70;99.90
36654;DHT22;22650;49.350;20.898;2023-07-30T12:07:43;24.40;99.90
36654;DHT22;22650;49.350;20.898;2023-07-30T12:10:16;24.20;99.90
36654;DHT22;22650;49.350;20.898;2023-07-30T12:12:54;24.00;99.90
36654;DHT22;22650;49.350;20.898;2023-07-30T12:15:29;23.80;99.90
36654;DHT22;22650;49.350;20.898;2023-07-30T12:18:03;23.70;99.90
36654;DHT22;22650;49.350;20.898;2023-07-30T12:20:37;23.50;99.90
36654;DHT22;22650;49.350;20.898;2023-07-30T12:23:11;23.40;99.90
36654;DHT22;22650;49.350;20.898;2023-07-30T12:25:45;23.20;99.90
36654;DHT22;22650;49.350;20.898;2023-07-30T12:28:21;23.00;99.90
36654;DHT22;22650;49.350;20.898;2023-07-30T12:30:54;22.90;99.90
36654;DHT22;22650;49.350;20.898;2023-07-30T12:33:28;22.80;99.90
36654;DHT22;22650;49.350;20.898;2023-07-30T12:36:02;22.70;99.90
36654;DHT22;22650;49.350;20.898;2023-07-30T12:38:38;22.40;99.90
36654;DHT22;22650;49.350;20.898;2023-07-30T12:41:12;22.30;99.90
36654;DHT22;22650;49.350;20.898;2023-07-30T12:43:48;22.20;99.90
36654;DHT22;22650;49.350;20.898;2023-07-30T12:46:23;22.10;99.90
36654;DHT22;22650;49.350;20.898;2023-07-30T12:49:01;21.90;99.90
36654;DHT22;22650;49.350;20.898;2023-07-30T12:51:37;21.70;99.90
36654;DHT22;22650;49.350;20.898;2023-07-30T12:54:12;21.70;99.90
36654;DHT22;22650;49.350;20.898;2023-07-30T12:56:46;21.50;99.90
36654;DHT22;22650;49.350;20.898;2023-07-30T12:59:22;21.40;99.90
36654;DHT22;22650;49.350;20.898;2023-07-30T13:01:57;21.30;99.90
36654;DHT22;22650;49.350;20.898;2023-07-30T13:04:31;21.20;99.90
36654;DHT22;22650;49.350;20.898;2023-07-30T13:07:06;21.00;99.90
36654;DHT22;22650;49.350;20.898;2023-07-30T13:09:40;20.90;99.90
36654;DHT22;22650;49.350;20.898;2023-07-30T13:12:16;20.70;99.90
36654;DHT22;22650;49.350;20.898;2023-07-30T13:14:52;20.60;99.90
36654;DHT22;22650;49.350;20.898;2023-07-30T13:17:26;20.50;99.90
36654;DHT22;22650;49.350;20.898;2023-07-30T13:20:03;20.30;99.90
36654;DHT22;22650;49.350;20.898;2023-07-30T13:22:37;20.20;99.90
36654;DHT22;22650;49.350;20.898;2023-07-30T13:25:11;20.20;99.90
36654;DHT22;22650;49.350;20.898;2023-07-30T13:27:46;20.20;99.90
36654;DHT22;22650;49.350;20.898;2023-07-30T13:30:22;20.20;99.90
36654;DHT22;22650;49.350;20.898;2023-07-30T13:32:56;20.20;99.90
36654;DHT22;22650;49.350;20.898;2023-07-30T13:35:31;20.20;99.90
36654;DHT22;22650;49.350;20.898;2023-07-30T13:38:09;20.20;99.90
36654;DHT22;22650;49.350;20.898;2023-07-30T13:40:45;20.30;99.90
36654;DHT22;22650;49.350;20.898;2023-07-30T13:43:21;20.20;99.90
36654;DHT22;22650;49.350;20.898;2023-07-30T13:45:57;20.20;99.90
36654;DHT22;22650;49.350;20.898;2023-07-30T13:48:33;20.30;99.90
36654;DHT22;22650;49.350;20.898;2023-07-30T13:51:07;20.30;99.90
36654;DHT22;22650;49.350;20.898;2023-07-30T13:53:41;20.30;99.90
36654;DHT22;22650;49.350;20.898;2023-07-30T13:56:15;20.30;99.90
36654;DHT22;22650;49.350;20.898;2023-07-30T13:58:49;20.40;99.90
36654;DHT22;22650;49.350;20.898;2023-07-30T14:01:25;20.40;99.90
36654;DHT22;22650;49.350;20.898;2023-07-30T14:03:58;20.40;99.90
36654;DHT22;22650;49.350;20.898;2023-07-30T14:06:32;20.40;99.90
36654;DHT22;22650;49.350;20.898;2023-07-30T14:09:06;20.50;99.90
36654;DHT22;22650;49.350;20.898;2023-07-30T14:11:40;20.60;99.90
36654;DHT22;22650;49.350;20.898;2023-07-30T14:14:17;20.60;99.90
36654;DHT22;22650;49.350;20.898;2023-07-30T14:16:54;20.70;99.90
36654;DHT22;22650;49.350;20.898;2023-07-30T14:19:28;20.80;99.90
36654;DHT22;22650;49.350;20.898;2023-07-30T14:22:02;20.90;99.90
36654;DHT22;22650;49.350;20.898;2023-07-30T14:24:36;20.90;99.90
36654;DHT22;22650;49.350;20.898;2023-07-30T14:27:11;20.90;99.90
36654;DHT22;22650;49.350;20.898;2023-07-30T14:29:44;21.00;99.90
36654;DHT22;22650;49.350;20.898;2023-07-30T14:32:21;21.10;99.90
36654;DHT22;22650;49.350;20.898;2023-07-30T14:34:55;21.20;99.90
36654;DHT22;22650;49.350;20.898;2023-07-30T14:37:29;21.20;99.90
36654;DHT22;22650;49.350;20.898;2023-07-30T14:40:03;21.30;99.90
36654;DHT22;22650;49.350;20.898;2023-07-30T14:42:37;21.30;99.90
36654;DHT22;22650;49.350;20.898;2023-07-30T14:45:12;21.40;99.90
36654;DHT22;22650;49.350;20.898;2023-07-30T14:47:47;21.50;99.90
36654;DHT22;22650;49.350;20.898;2023-07-30T14:50:21;21.50;99.90
36654;DHT22;22650;49.350;20.898;2023-07-30T14:52:55;21.60;99.90
36654;DHT22;22650;49.350;20.898;2023-07-30T14:55:30;21.60;99.90
36654;DHT22;22650;49.350;20.898;2023-07-30T14:58:04;21.70;99.90
36654;DHT22;22650;49.350;20.898;2023-07-30T15:00:38;21.70;99.90
36654;DHT22;22650;49.350;20.898;2023-07-30T15:03:13;21.80;99.90
36654;DHT22;22650;49.350;20.898;2023-07-30T15:05:47;21.80;99.90
36654;DHT22;22650;49.350;20.898;2023-07-30T15:08:21;21.80;99.90
36654;DHT22;22650;49.350;20.898;2023-07-30T15:10:55;21.90;99.90
36654;DHT22;22650;49.350;20.898;2023-07-30T15:13:29;22.00;99.90
36654;DHT22;22650;49.350;20.898;2023-07-30T15:16:03;22.00;99.90
36654;DHT22;22650;49.350;20.898;2023-07-30T15:18:38;22.00;99.90
36654;DHT22;22650;49.350;20.898;2023-07-30T15:21:12;22.10;99.90
36654;DHT22;22650;49.350;20.898;2023-07-30T15:23:46;22.10;99.90
36654;DHT22;22650;49.350;20.898;2023-07-30T15:26:20;22.20;99.90
36654;DHT22;22650;49.350;20.898;2023-07-30T15:28:55;22.20;99.90
36654;DHT22;22650;49.350;20.898;2023-07-30T15:31:30;22.30;99.90
36654;DHT22;22650;49.350;20.898;2023-07-30T15:34:06;22.30;99.90
36654;DHT22;22650;49.350;20.898;2023-07-30T15:36:40;22.40;99.90
36654;DHT22;22650;49.350;20.898;2023-07-30T15:39:14;22.50;99.90
36654;DHT22;22650;49.350;20.898;2023-07-30T15:41:49;22.50;99.90
36654;DHT22;22650;49.350;20.898;2023-07-30T15:44:23;22.50;99.90
36654;DHT22;22650;49.350;20.898;2023-07-30T15:46:57;22.60;99.90
36654;DHT22;22650;49.350;20.898;2023-07-30T15:49:34;22.60;99.90
36654;DHT22;22650;49.350;20.898;2023-07-30T15:52:08;22.60;99.90
36654;DHT22;22650;49.350;20.898;2023-07-30T15:54:43;22.60;99.90
36654;DHT22;22650;49.350;20.898;2023-07-30T15:57:17;22.60;99.90
36654;DHT22;22650;49.350;20.898;2023-07-30T15:59:51;22.60;99.90
36654;DHT22;22650;49.350;20.898;2023-07-30T16:02:25;22.60;99.90